sensor_id;sensor_type;location;lat;lon;timestamp;temperature;humidity
10296;DHT22;5193;51.032;6.356;2024-03-17T00:01:02;4.90;99.90
10296;DHT22;5193;51.032;6.356;2024-03-17T00:03:31;4.90;99.90
10296;DHT22;5193;51.032;6.356;2024-03-17T00:06:01;4.90;99.90
10296;DHT22;5193;51.032;6.356;2024-03-17T00:08:27;4.90;99.90
10296;DHT22;5193;51.032;6.356;2024-03-17T00:10:56;4.90;99.90
10296;DHT22;5193;51.032;6.356;2024-03-17T00:13:23;4.90;99.90
10296;DHT22;5193;51.032;6.356;2024-03-17T00:15:52;4.90;99.90
10296;DHT22;5193;51.032;6.356;2024-03-17T00:18:18;4.90;99.90
10296;DHT22;5193;51.032;6.356;2024-03-17T00:20:44;4.90;99.90
10296;DHT22;5193;51.032;6.356;2024-03-17T00:23:11;4.80;99.90
10296;DHT22;5193;51.032;6.356;2024-03-17T00:29:06;4.80;99.90
10296;DHT22;5193;51.032;6.356;2024-03-17T00:31:32;4.80;99.90
10296;DHT22;5193;51.032;6.356;2024-03-17T00:33:57;4.80;99.90
10296;DHT22;5193;51.032;6.356;2024-03-17T00:36:23;4.80;99.90
10296;DHT22;5193;51.032;6.356;2024-03-17T00:38:49;4.80;99.90
10296;DHT22;5193;51.032;6.356;2024-03-17T00:41:14;4.80;99.90
10296;DHT22;5193;51.032;6.356;2024-03-17T00:43:41;4.90;99.90
10296;DHT22;5193;51.032;6.356;2024-03-17T00:46:06;4.90;99.90
10296;DHT22;5193;51.032;6.356;2024-03-17T00:48:32;4.90;99.90
10296;DHT22;5193;51.032;6.356;2024-03-17T00:50:58;4.90;99.90
10296;DHT22;5193;51.032;6.356;2024-03-17T00:53:25;4.90;99.90
10296;DHT22;5193;51.032;6.356;2024-03-17T00:55:56;4.90;99.90
10296;DHT22;5193;51.032;6.356;2024-03-17T00:58:28;4.90;99.90
10296;DHT22;5193;51.032;6.356;2024-03-17T01:00:54;4.80;99.90
10296;DHT22;5193;51.032;6.356;2024-03-17T01:03:19;4.80;99.90
10296;DHT22;5193;51.032;6.356;2024-03-17T01:05:45;4.80;99.90
10296;DHT22;5193;51.032;6.356;2024-03-17T01:08:13;4.80;99.90
10296;DHT22;5193;51.032;6.356;2024-03-17T01:10:40;4.80;99.90
10296;DHT22;5193;51.032;6.356;2024-03-17T01:13:09;4.80;99.90
10296;DHT22;5193;51.032;6.356;2024-03-17T01:15:39;4.80;99.90
10296;DHT22;5193;51.032;6.356;2024-03-17T01:18:05;4.80;99.90
10296;DHT22;5193;51.032;6.356;2024-03-17T01:20:32;4.80;99.90
10296;DHT22;5193;51.032;6.356;2024-03-17T01:22:57;4.70;99.90
10296;DHT22;5193;51.032;6.356;2024-03-17T01:25:23;4.80;99.90
10296;DHT22;5193;51.032;6.356;2024-03-17T01:27:51;4.70;99.90
10296;DHT22;5193;51.032;6.356;2024-03-17T01:30:17;4.70;99.90
10296;DHT22;5193;51.032;6.356;2024-03-17T01:32:42;4.80;99.90
10296;DHT22;5193;51.032;6.356;2024-03-17T01:35:08;4.70;99.90
10296;DHT22;5193;51.032;6.356;2024-03-17T01:37:34;4.70;99.90
10296;DHT22;5193;51.032;6.356;2024-03-17T01:39:59;4.80;99.90
10296;DHT22;5193;51.032;6.356;2024-03-17T01:42:34;4.80;99.90
10296;DHT22;5193;51.032;6.356;2024-03-17T01:45:00;4.80;99.90
10296;DHT22;5193;51.032;6.356;2024-03-17T01:47:25;4.80;99.90
10296;DHT22;5193;51.032;6.356;2024-03-17T01:49:51;4.80;99.90
10296;DHT22;5193;51.032;6.356;2024-03-17T01:52:19;4.80;99.90
10296;DHT22;5193;51.032;6.356;2024-03-17T01:54:48;4.80;99.90
10296;DHT22;5193;51.032;6.356;2024-03-17T01:57:15;4.80;99.90
10296;DHT22;5193;51.032;6.356;2024-03-17T01:59:41;4.80;99.90
10296;DHT22;5193;51.032;6.356;2024-03-17T02:02:07;4.80;99.90
10296;DHT22;5193;51.032;6.356;2024-03-17T02:04:32;4.70;99.90
10296;DHT22;5193;51.032;6.356;2024-03-17T02:06:59;4.70;99.90
10296;DHT22;5193;51.032;6.356;2024-03-17T02:09:28;4.60;99.90
10296;DHT22;5193;51.032;6.356;2024-03-17T02:11:54;4.60;99.90
10296;DHT22;5193;51.032;6.356;2024-03-17T02:14:21;4.60;99.90
10296;DHT22;5193;51.032;6.356;2024-03-17T02:16:46;4.60;99.90
10296;DHT22;5193;51.032;6.356;2024-03-17T02:19:12;4.60;99.90
10296;DHT22;5193;51.032;6.356;2024-03-17T02:21:37;4.50;99.90
10296;DHT22;5193;51.032;6.356;2024-03-17T02:24:09;4.50;99.90
10296;DHT22;5193;51.032;6.356;2024-03-17T02:26:35;4.50;99.90
10296;DHT22;5193;51.032;6.356;2024-03-17T02:29:01;4.50;99.90
10296;DHT22;5193;51.032;6.356;2024-03-17T02:31:26;4.50;99.90
10296;DHT22;5193;51.032;6.356;2024-03-17T02:33:52;4.60;99.90
10296;DHT22;5193;51.032;6.356;2024-03-17T02:36:17;4.60;99.90
10296;DHT22;5193;51.032;6.356;2024-03-17T02:38:46;4.60;99.90
10296;DHT22;5193;51.032;6.356;2024-03-17T02:41:29;4.60;99.90
10296;DHT22;5193;51.032;6.356;2024-03-17T02:43:55;4.60;99.90
10296;DHT22;5193;51.032;6.356;2024-03-17T02:46:21;4.60;99.90
10296;DHT22;5193;51.032;6.356;2024-03-17T02:48:52;4.60;99.90
10296;DHT22;5193;51.032;6.356;2024-03-17T02:51:20;4.60;99.90
10296;DHT22;5193;51.032;6.356;2024-03-17T02:53:49;4.60;99.90
10296;DHT22;5193;51.032;6.356;2024-03-17T02:56:16;4.60;99.90
10296;DHT22;5193;51.032;6.356;2024-03-17T02:58:42;4.70;99.90
10296;DHT22;5193;51.032;6.356;2024-03-17T03:01:10;4.70;99.90
10296;DHT22;5193;51.032;6.356;2024-03-17T03:03:38;4.70;99.90
10296;DHT22;5193;51.032;6.356;2024-03-17T03:06:04;4.70;99.90
10296;DHT22;5193;51.032;6.356;2024-03-17T03:08:35;4.70;99.90
10296;DHT22;5193;51.032;6.356;2024-03-17T03:11:03;4.70;99.90
10296;DHT22;5193;51.032;6.356;2024-03-17T03:13:29;4.70;99.90
10296;DHT22;5193;51.032;6.356;2024-03-17T03:15:55;4.70;99.90
10296;DHT22;5193;51.032;6.356;2024-03-17T03:18:23;4.80;99.90
10296;DHT22;5193;51.032;6.356;2024-03-17T03:20:52;4.80;99.90
10296;DHT22;5193;51.032;6.356;2024-03-17T03:23:20;4.80;99.90
10296;DHT22;5193;51.032;6.356;2024-03-17T03:25:46;4.80;99.90
10296;DHT22;5193;51.032;6.356;2024-03-17T03:28:13;4.80;99.90
10296;DHT22;5193;51.032;6.356;2024-03-17T03:30:39;4.90;99.90
10296;DHT22;5193;51.032;6.356;2024-03-17T03:33:05;4.90;99.90
10296;DHT22;5193;51.032;6.356;2024-03-17T03:35:31;4.90;99.90
10296;DHT22;5193;51.032;6.356;2024-03-17T03:37:57;5.00;99.90
10296;DHT22;5193;51.032;6.356;2024-03-17T03:40:22;5.10;99.90
10296;DHT22;5193;51.032;6.356;2024-03-17T03:42:48;5.10;99.90
10296;DHT22;5193;51.032;6.356;2024-03-17T03:45:17;5.10;99.90
10296;DHT22;5193;51.032;6.356;2024-03-17T03:47:43;5.10;99.90
10296;DHT22;5193;51.032;6.356;2024-03-17T03:50:14;5.20;99.90
10296;DHT22;5193;51.032;6.356;2024-03-17T03:52:39;5.10;99.90
10296;DHT22;5193;51.032;6.356;2024-03-17T03:55:09;5.20;99.90
10296;DHT22;5193;51.032;6.356;2024-03-17T03:57:44;5.20;99.90
10296;DHT22;5193;51.032;6.356;2024-03-17T04:00:19;5.20;99.90
10296;DHT22;5193;51.032;6.356;2024-03-17T04:02:50;5.10;99.90
10296;DHT22;5193;51.032;6.356;2024-03-17T04:05:17;5.20;99.90
10296;DHT22;5193;51.032;6.356;2024-03-17T04:07:43;5.10;99.90
10296;DHT22;5193;51.032;6.356;2024-03-17T04:10:12;5.20;99.90
10296;DHT22;5193;51.032;6.356;2024-03-17T04:12:43;5.20;99.90
10296;DHT22;5193;51.032;6.356;2024-03-17T04:15:09;5.20;99.90
10296;DHT22;5193;51.032;6.356;2024-03-17T04:17:38;5.20;99.90
10296;DHT22;5193;51.032;6.356;2024-03-17T04:20:05;5.10;99.90
10296;DHT22;5193;51.032;6.356;2024-03-17T04:22:40;5.20;99.90
10296;DHT22;5193;51.032;6.356;2024-03-17T04:25:06;5.20;99.90
10296;DHT22;5193;51.032;6.356;2024-03-17T04:27:32;5.20;99.90
10296;DHT22;5193;51.032;6.356;2024-03-17T04:29:59;5.20;99.90
10296;DHT22;5193;51.032;6.356;2024-03-17T04:32:25;5.20;99.90
10296;DHT22;5193;51.032;6.356;2024-03-17T04:34:52;5.10;99.90
10296;DHT22;5193;51.032;6.356;2024-03-17T04:37:30;5.10;99.90
10296;DHT22;5193;51.032;6.356;2024-03-17T04:39:56;5.10;99.90
10296;DHT22;5193;51.032;6.356;2024-03-17T04:42:23;5.10;99.90
10296;DHT22;5193;51.032;6.356;2024-03-17T04:44:48;5.10;99.90
10296;DHT22;5193;51.032;6.356;2024-03-17T04:47:14;5.00;99.90
10296;DHT22;5193;51.032;6.356;2024-03-17T04:49:42;5.00;99.90
10296;DHT22;5193;51.032;6.356;2024-03-17T04:52:12;4.90;99.90
10296;DHT22;5193;51.032;6.356;2024-03-17T04:54:37;4.90;99.90
10296;DHT22;5193;51.032;6.356;2024-03-17T04:57:03;4.80;99.90
10296;DHT22;5193;51.032;6.356;2024-03-17T04:59:30;4.80;99.90
10296;DHT22;5193;51.032;6.356;2024-03-17T05:01:55;4.80;99.90
10296;DHT22;5193;51.032;6.356;2024-03-17T05:04:24;4.70;99.90
10296;DHT22;5193;51.032;6.356;2024-03-17T05:06:49;4.70;99.90
10296;DHT22;5193;51.032;6.356;2024-03-17T05:09:21;4.60;99.90
10296;DHT22;5193;51.032;6.356;2024-03-17T05:11:50;4.60;99.90
10296;DHT22;5193;51.032;6.356;2024-03-17T05:14:16;4.60;99.90
10296;DHT22;5193;51.032;6.356;2024-03-17T05:16:44;4.60;99.90
10296;DHT22;5193;51.032;6.356;2024-03-17T05:19:10;4.50;99.90
10296;DHT22;5193;51.032;6.356;2024-03-17T05:21:36;4.50;99.90
10296;DHT22;5193;51.032;6.356;2024-03-17T05:24:02;4.50;99.90
10296;DHT22;5193;51.032;6.356;2024-03-17T05:26:28;4.50;99.90
10296;DHT22;5193;51.032;6.356;2024-03-17T05:28:54;4.50;99.90
10296;DHT22;5193;51.032;6.356;2024-03-17T05:31:20;4.40;99.90
10296;DHT22;5193;51.032;6.356;2024-03-17T05:33:49;4.40;99.90
10296;DHT22;5193;51.032;6.356;2024-03-17T05:36:15;4.40;99.90
10296;DHT22;5193;51.032;6.356;2024-03-17T05:38:41;4.40;99.90
10296;DHT22;5193;51.032;6.356;2024-03-17T05:41:07;4.40;99.90
10296;DHT22;5193;51.032;6.356;2024-03-17T05:43:35;4.40;99.90
10296;DHT22;5193;51.032;6.356;2024-03-17T05:46:08;4.30;99.90
10296;DHT22;5193;51.032;6.356;2024-03-17T05:48:38;4.30;99.90
10296;DHT22;5193;51.032;6.356;2024-03-17T05:51:10;4.20;99.90
10296;DHT22;5193;51.032;6.356;2024-03-17T05:53:36;4.20;99.90
10296;DHT22;5193;51.032;6.356;2024-03-17T05:56:03;4.20;99.90
10296;DHT22;5193;51.032;6.356;2024-03-17T05:58:29;4.20;99.90
10296;DHT22;5193;51.032;6.356;2024-03-17T06:00:55;4.20;99.90
10296;DHT22;5193;51.032;6.356;2024-03-17T06:03:21;4.20;99.90
10296;DHT22;5193;51.032;6.356;2024-03-17T06:05:47;4.20;99.90
10296;DHT22;5193;51.032;6.356;2024-03-17T06:08:14;4.20;99.90
10296;DHT22;5193;51.032;6.356;2024-03-17T06:10:47;4.20;99.90
10296;DHT22;5193;51.032;6.356;2024-03-17T06:13:14;4.30;99.90
10296;DHT22;5193;51.032;6.356;2024-03-17T06:15:45;4.30;99.90
10296;DHT22;5193;51.032;6.356;2024-03-17T06:18:14;4.30;99.90
10296;DHT22;5193;51.032;6.356;2024-03-17T06:20:41;4.30;99.90
10296;DHT22;5193;51.032;6.356;2024-03-17T06:23:13;4.40;99.90
10296;DHT22;5193;51.032;6.356;2024-03-17T06:25:44;4.40;99.90
10296;DHT22;5193;51.032;6.356;2024-03-17T06:28:11;4.50;99.90
10296;DHT22;5193;51.032;6.356;2024-03-17T06:30:41;4.50;99.90
10296;DHT22;5193;51.032;6.356;2024-03-17T06:33:08;4.50;99.90
10296;DHT22;5193;51.032;6.356;2024-03-17T06:35:36;4.60;99.90
10296;DHT22;5193;51.032;6.356;2024-03-17T06:38:02;4.60;99.90
10296;DHT22;5193;51.032;6.356;2024-03-17T06:40:29;4.70;99.90
10296;DHT22;5193;51.032;6.356;2024-03-17T06:42:56;4.70;99.90
10296;DHT22;5193;51.032;6.356;2024-03-17T06:45:22;4.80;99.90
10296;DHT22;5193;51.032;6.356;2024-03-17T06:47:48;4.80;99.90
10296;DHT22;5193;51.032;6.356;2024-03-17T06:50:13;4.80;99.90
10296;DHT22;5193;51.032;6.356;2024-03-17T06:52:40;4.80;99.90
10296;DHT22;5193;51.032;6.356;2024-03-17T06:55:06;4.90;99.90
10296;DHT22;5193;51.032;6.356;2024-03-17T06:57:32;4.90;99.90
10296;DHT22;5193;51.032;6.356;2024-03-17T07:00:00;5.00;99.90
10296;DHT22;5193;51.032;6.356;2024-03-17T07:02:26;5.00;99.90
10296;DHT22;5193;51.032;6.356;2024-03-17T07:04:52;5.10;99.90
10296;DHT22;5193;51.032;6.356;2024-03-17T07:07:17;5.20;99.90
10296;DHT22;5193;51.032;6.356;2024-03-17T07:09:43;5.40;99.90
10296;DHT22;5193;51.032;6.356;2024-03-17T07:12:10;5.50;99.90
10296;DHT22;5193;51.032;6.356;2024-03-17T07:14:36;5.60;99.90
10296;DHT22;5193;51.032;6.356;2024-03-17T07:17:02;5.70;99.90
10296;DHT22;5193;51.032;6.356;2024-03-17T07:19:28;5.80;99.90
10296;DHT22;5193;51.032;6.356;2024-03-17T07:22:06;5.70;99.90
10296;DHT22;5193;51.032;6.356;2024-03-17T07:24:33;6.00;99.90
10296;DHT22;5193;51.032;6.356;2024-03-17T07:26:59;6.10;99.90
10296;DHT22;5193;51.032;6.356;2024-03-17T07:29:24;6.30;99.90
10296;DHT22;5193;51.032;6.356;2024-03-17T07:31:50;6.40;99.90
10296;DHT22;5193;51.032;6.356;2024-03-17T07:34:15;6.50;99.90
10296;DHT22;5193;51.032;6.356;2024-03-17T07:36:41;6.60;99.90
10296;DHT22;5193;51.032;6.356;2024-03-17T07:39:06;6.80;99.90
10296;DHT22;5193;51.032;6.356;2024-03-17T07:41:35;6.90;99.90
10296;DHT22;5193;51.032;6.356;2024-03-17T07:44:00;7.00;99.90
10296;DHT22;5193;51.032;6.356;2024-03-17T07:46:26;7.30;99.90
10296;DHT22;5193;51.032;6.356;2024-03-17T07:48:58;7.40;99.90
10296;DHT22;5193;51.032;6.356;2024-03-17T07:51:26;7.60;99.90
10296;DHT22;5193;51.032;6.356;2024-03-17T07:53:52;7.70;99.90
10296;DHT22;5193;51.032;6.356;2024-03-17T07:56:19;7.90;99.90
10296;DHT22;5193;51.032;6.356;2024-03-17T07:58:46;7.90;99.90
10296;DHT22;5193;51.032;6.356;2024-03-17T08:01:15;8.00;99.90
10296;DHT22;5193;51.032;6.356;2024-03-17T08:03:43;8.00;99.90
10296;DHT22;5193;51.032;6.356;2024-03-17T08:06:09;8.00;99.90
10296;DHT22;5193;51.032;6.356;2024-03-17T08:08:37;8.00;99.90
10296;DHT22;5193;51.032;6.356;2024-03-17T08:11:02;8.10;99.90
10296;DHT22;5193;51.032;6.356;2024-03-17T08:13:31;8.10;99.90
10296;DHT22;5193;51.032;6.356;2024-03-17T08:16:09;8.30;99.90
10296;DHT22;5193;51.032;6.356;2024-03-17T08:18:37;8.40;99.90
10296;DHT22;5193;51.032;6.356;2024-03-17T08:21:03;8.50;99.90
10296;DHT22;5193;51.032;6.356;2024-03-17T08:23:54;8.60;99.90
10296;DHT22;5193;51.032;6.356;2024-03-17T08:26:20;8.70;99.90
10296;DHT22;5193;51.032;6.356;2024-03-17T08:28:45;8.80;99.90
10296;DHT22;5193;51.032;6.356;2024-03-17T08:31:12;8.80;99.90
10296;DHT22;5193;51.032;6.356;2024-03-17T08:33:38;8.90;99.90
10296;DHT22;5193;51.032;6.356;2024-03-17T08:36:07;8.90;99.90
10296;DHT22;5193;51.032;6.356;2024-03-17T08:38:33;9.00;99.90
10296;DHT22;5193;51.032;6.356;2024-03-17T08:41:04;9.10;99.90
10296;DHT22;5193;51.032;6.356;2024-03-17T08:43:36;9.20;99.90
10296;DHT22;5193;51.032;6.356;2024-03-17T08:46:03;9.20;99.90
10296;DHT22;5193;51.032;6.356;2024-03-17T08:48:29;9.20;99.90
10296;DHT22;5193;51.032;6.356;2024-03-17T08:50:56;9.30;99.90
10296;DHT22;5193;51.032;6.356;2024-03-17T08:53:23;9.30;99.90
10296;DHT22;5193;51.032;6.356;2024-03-17T08:55:49;9.40;99.90
10296;DHT22;5193;51.032;6.356;2024-03-17T08:58:16;9.40;99.90
10296;DHT22;5193;51.032;6.356;2024-03-17T09:00:42;9.40;99.90
10296;DHT22;5193;51.032;6.356;2024-03-17T09:03:08;9.50;99.90
10296;DHT22;5193;51.032;6.356;2024-03-17T09:05:36;9.50;99.90
10296;DHT22;5193;51.032;6.356;2024-03-17T09:08:08;9.60;99.90
10296;DHT22;5193;51.032;6.356;2024-03-17T09:10:43;9.70;99.90
10296;DHT22;5193;51.032;6.356;2024-03-17T09:13:16;9.90;99.90
10296;DHT22;5193;51.032;6.356;2024-03-17T09:18:26;10.20;99.90
10296;DHT22;5193;51.032;6.356;2024-03-17T09:21:17;10.30;99.90
10296;DHT22;5193;51.032;6.356;2024-03-17T09:23:43;10.40;99.90
10296;DHT22;5193;51.032;6.356;2024-03-17T09:26:10;10.40;99.90
10296;DHT22;5193;51.032;6.356;2024-03-17T09:28:41;10.40;99.90
10296;DHT22;5193;51.032;6.356;2024-03-17T09:31:07;10.40;99.90
10296;DHT22;5193;51.032;6.356;2024-03-17T09:33:36;10.50;99.90
10296;DHT22;5193;51.032;6.356;2024-03-17T09:36:10;10.60;99.90
10296;DHT22;5193;51.032;6.356;2024-03-17T09:38:38;10.70;99.90
10296;DHT22;5193;51.032;6.356;2024-03-17T09:41:07;10.80;99.90
10296;DHT22;5193;51.032;6.356;2024-03-17T09:43:36;10.90;99.90
10296;DHT22;5193;51.032;6.356;2024-03-17T09:46:03;11.00;99.90
10296;DHT22;5193;51.032;6.356;2024-03-17T09:48:29;11.10;99.90
10296;DHT22;5193;51.032;6.356;2024-03-17T09:50:56;11.20;99.90
10296;DHT22;5193;51.032;6.356;2024-03-17T09:53:27;11.20;99.90
10296;DHT22;5193;51.032;6.356;2024-03-17T09:56:00;11.30;99.90
10296;DHT22;5193;51.032;6.356;2024-03-17T09:58:26;11.30;99.90
10296;DHT22;5193;51.032;6.356;2024-03-17T10:00:52;11.40;99.90
10296;DHT22;5193;51.032;6.356;2024-03-17T10:06:06;11.50;99.90
10296;DHT22;5193;51.032;6.356;2024-03-17T10:08:59;11.60;99.90
10296;DHT22;5193;51.032;6.356;2024-03-17T10:11:34;11.80;99.90
10296;DHT22;5193;51.032;6.356;2024-03-17T10:14:10;11.90;99.90
10296;DHT22;5193;51.032;6.356;2024-03-17T10:16:38;12.00;99.90
10296;DHT22;5193;51.032;6.356;2024-03-17T10:19:13;12.20;99.90
10296;DHT22;5193;51.032;6.356;2024-03-17T10:21:41;12.40;99.90
10296;DHT22;5193;51.032;6.356;2024-03-17T10:26:41;12.70;99.90
10296;DHT22;5193;51.032;6.356;2024-03-17T10:29:32;12.80;99.90
10296;DHT22;5193;51.032;6.356;2024-03-17T10:32:03;12.90;99.90
10296;DHT22;5193;51.032;6.356;2024-03-17T10:34:30;13.10;99.90
10296;DHT22;5193;51.032;6.356;2024-03-17T10:39:44;13.30;99.90
10296;DHT22;5193;51.032;6.356;2024-03-17T10:42:11;13.40;99.90
10296;DHT22;5193;51.032;6.356;2024-03-17T10:44:39;13.40;99.90
10296;DHT22;5193;51.032;6.356;2024-03-17T10:47:12;13.50;99.90
10296;DHT22;5193;51.032;6.356;2024-03-17T10:49:41;13.50;99.90
10296;DHT22;5193;51.032;6.356;2024-03-17T10:52:18;13.60;99.90
10296;DHT22;5193;51.032;6.356;2024-03-17T10:54:49;13.70;99.90
10296;DHT22;5193;51.032;6.356;2024-03-17T10:59:53;13.90;99.90
10296;DHT22;5193;51.032;6.356;2024-03-17T11:02:24;14.00;99.90
10296;DHT22;5193;51.032;6.356;2024-03-17T11:05:02;14.00;99.90
10296;DHT22;5193;51.032;6.356;2024-03-17T11:07:28;14.10;99.90
10296;DHT22;5193;51.032;6.356;2024-03-17T11:09:59;14.20;99.90
10296;DHT22;5193;51.032;6.356;2024-03-17T11:12:42;14.20;99.90
10296;DHT22;5193;51.032;6.356;2024-03-17T11:20:41;14.50;99.90
10296;DHT22;5193;51.032;6.356;2024-03-17T11:23:08;14.70;99.90
10296;DHT22;5193;51.032;6.356;2024-03-17T11:25:38;14.80;99.90
10296;DHT22;5193;51.032;6.356;2024-03-17T11:28:07;14.80;99.90
10296;DHT22;5193;51.032;6.356;2024-03-17T11:41:40;14.80;99.90
10296;DHT22;5193;51.032;6.356;2024-03-17T11:47:06;14.90;99.90
10296;DHT22;5193;51.032;6.356;2024-03-17T11:49:37;14.90;99.90
10296;DHT22;5193;51.032;6.356;2024-03-17T11:52:04;14.90;99.90
10296;DHT22;5193;51.032;6.356;2024-03-17T11:54:36;14.90;99.90
10296;DHT22;5193;51.032;6.356;2024-03-17T11:57:10;15.00;99.90
10296;DHT22;5193;51.032;6.356;2024-03-17T11:59:37;15.00;99.90
10296;DHT22;5193;51.032;6.356;2024-03-17T12:02:20;15.00;99.90
10296;DHT22;5193;51.032;6.356;2024-03-17T12:04:46;15.10;99.90
10296;DHT22;5193;51.032;6.356;2024-03-17T12:07:13;15.10;99.90
10296;DHT22;5193;51.032;6.356;2024-03-17T12:09:43;15.20;99.90
10296;DHT22;5193;51.032;6.356;2024-03-17T12:12:10;15.20;99.90
10296;DHT22;5193;51.032;6.356;2024-03-17T12:14:38;15.20;99.90
10296;DHT22;5193;51.032;6.356;2024-03-17T12:17:06;15.30;99.90
10296;DHT22;5193;51.032;6.356;2024-03-17T12:19:33;15.30;99.90
10296;DHT22;5193;51.032;6.356;2024-03-17T12:22:00;15.30;99.90
10296;DHT22;5193;51.032;6.356;2024-03-17T12:24:28;15.30;99.90
10296;DHT22;5193;51.032;6.356;2024-03-17T12:26:55;15.30;99.90
10296;DHT22;5193;51.032;6.356;2024-03-17T12:29:26;15.30;99.90
10296;DHT22;5193;51.032;6.356;2024-03-17T12:31:54;15.30;99.90
10296;DHT22;5193;51.032;6.356;2024-03-17T12:34:27;15.20;99.90
10296;DHT22;5193;51.032;6.356;2024-03-17T12:36:55;15.20;99.90
10296;DHT22;5193;51.032;6.356;2024-03-17T12:39:25;15.20;99.90
10296;DHT22;5193;51.032;6.356;2024-03-17T12:42:05;15.20;99.90
10296;DHT22;5193;51.032;6.356;2024-03-17T12:44:32;15.20;99.90
10296;DHT22;5193;51.032;6.356;2024-03-17T12:47:05;15.10;99.90
10296;DHT22;5193;51.032;6.356;2024-03-17T12:49:35;15.10;99.90
10296;DHT22;5193;51.032;6.356;2024-03-17T12:52:01;15.00;99.90
10296;DHT22;5193;51.032;6.356;2024-03-17T12:54:28;15.00;99.90
10296;DHT22;5193;51.032;6.356;2024-03-17T12:57:05;15.00;99.90
10296;DHT22;5193;51.032;6.356;2024-03-17T12:59:53;15.00;99.90
10296;DHT22;5193;51.032;6.356;2024-03-17T13:02:43;15.00;99.90
10296;DHT22;5193;51.032;6.356;2024-03-17T13:05:19;15.00;99.90
10296;DHT22;5193;51.032;6.356;2024-03-17T13:07:52;15.00;99.90
10296;DHT22;5193;51.032;6.356;2024-03-17T13:10:20;15.00;99.90
10296;DHT22;5193;51.032;6.356;2024-03-17T13:12:47;15.00;99.90
10296;DHT22;5193;51.032;6.356;2024-03-17T13:15:17;15.10;99.90
10296;DHT22;5193;51.032;6.356;2024-03-17T13:17:46;15.10;99.90
10296;DHT22;5193;51.032;6.356;2024-03-17T13:20:16;15.10;99.90
10296;DHT22;5193;51.032;6.356;2024-03-17T13:22:43;15.10;99.90
10296;DHT22;5193;51.032;6.356;2024-03-17T13:25:14;15.20;99.90
10296;DHT22;5193;51.032;6.356;2024-03-17T13:27:41;15.20;99.90
10296;DHT22;5193;51.032;6.356;2024-03-17T13:30:07;15.30;99.90
10296;DHT22;5193;51.032;6.356;2024-03-17T13:32:35;15.40;99.90
10296;DHT22;5193;51.032;6.356;2024-03-17T13:35:03;15.40;99.90
10296;DHT22;5193;51.032;6.356;2024-03-17T13:37:30;15.40;99.90
10296;DHT22;5193;51.032;6.356;2024-03-17T13:39:56;15.40;99.90
10296;DHT22;5193;51.032;6.356;2024-03-17T13:42:21;15.40;99.90
10296;DHT22;5193;51.032;6.356;2024-03-17T13:44:47;15.40;99.90
10296;DHT22;5193;51.032;6.356;2024-03-17T13:47:14;15.50;99.90
10296;DHT22;5193;51.032;6.356;2024-03-17T13:49:40;15.50;99.90
10296;DHT22;5193;51.032;6.356;2024-03-17T13:52:07;15.50;99.90
10296;DHT22;5193;51.032;6.356;2024-03-17T13:54:34;15.60;99.90
10296;DHT22;5193;51.032;6.356;2024-03-17T13:57:00;15.60;99.90
10296;DHT22;5193;51.032;6.356;2024-03-17T13:59:27;15.60;99.90
10296;DHT22;5193;51.032;6.356;2024-03-17T14:01:53;15.70;99.90
10296;DHT22;5193;51.032;6.356;2024-03-17T14:04:18;15.70;99.90
10296;DHT22;5193;51.032;6.356;2024-03-17T14:06:45;15.80;99.90
10296;DHT22;5193;51.032;6.356;2024-03-17T14:09:15;16.00;99.90
10296;DHT22;5193;51.032;6.356;2024-03-17T14:11:45;16.20;99.90
10296;DHT22;5193;51.032;6.356;2024-03-17T14:14:11;16.30;99.90
10296;DHT22;5193;51.032;6.356;2024-03-17T14:16:40;16.40;99.90
10296;DHT22;5193;51.032;6.356;2024-03-17T14:19:10;16.50;99.90
10296;DHT22;5193;51.032;6.356;2024-03-17T14:21:36;16.40;99.90
10296;DHT22;5193;51.032;6.356;2024-03-17T14:24:02;16.50;99.90
10296;DHT22;5193;51.032;6.356;2024-03-17T14:29:46;16.50;99.90
10296;DHT22;5193;51.032;6.356;2024-03-17T14:32:11;16.60;99.90
10296;DHT22;5193;51.032;6.356;2024-03-17T14:34:39;16.70;99.90
10296;DHT22;5193;51.032;6.356;2024-03-17T14:37:05;16.90;99.90
10296;DHT22;5193;51.032;6.356;2024-03-17T14:39:31;17.00;99.90
10296;DHT22;5193;51.032;6.356;2024-03-17T14:41:57;17.20;99.90
10296;DHT22;5193;51.032;6.356;2024-03-17T14:44:23;17.30;99.90
10296;DHT22;5193;51.032;6.356;2024-03-17T14:46:49;17.30;99.90
10296;DHT22;5193;51.032;6.356;2024-03-17T14:49:18;17.30;99.90
10296;DHT22;5193;51.032;6.356;2024-03-17T14:51:44;17.30;99.90
10296;DHT22;5193;51.032;6.356;2024-03-17T14:54:12;17.10;99.90
10296;DHT22;5193;51.032;6.356;2024-03-17T14:56:38;16.90;99.90
10296;DHT22;5193;51.032;6.356;2024-03-17T14:59:05;16.90;99.90
10296;DHT22;5193;51.032;6.356;2024-03-17T15:01:31;16.80;99.90
10296;DHT22;5193;51.032;6.356;2024-03-17T15:03:56;16.70;99.90
10296;DHT22;5193;51.032;6.356;2024-03-17T15:06:22;16.70;99.90
10296;DHT22;5193;51.032;6.356;2024-03-17T15:08:48;16.60;99.90
10296;DHT22;5193;51.032;6.356;2024-03-17T15:11:14;16.60;99.90
10296;DHT22;5193;51.032;6.356;2024-03-17T15:13:40;16.60;99.90
10296;DHT22;5193;51.032;6.356;2024-03-17T15:16:08;16.60;99.90
10296;DHT22;5193;51.032;6.356;2024-03-17T15:18:34;16.70;99.90
10296;DHT22;5193;51.032;6.356;2024-03-17T15:21:00;16.80;99.90
10296;DHT22;5193;51.032;6.356;2024-03-17T15:23:27;16.80;99.90
10296;DHT22;5193;51.032;6.356;2024-03-17T15:26:13;16.90;99.90
10296;DHT22;5193;51.032;6.356;2024-03-17T15:28:43;17.00;99.90
10296;DHT22;5193;51.032;6.356;2024-03-17T15:31:12;17.00;99.90
10296;DHT22;5193;51.032;6.356;2024-03-17T15:33:38;16.90;99.90
10296;DHT22;5193;51.032;6.356;2024-03-17T15:36:07;16.90;99.90
10296;DHT22;5193;51.032;6.356;2024-03-17T15:38:37;16.90;99.90
10296;DHT22;5193;51.032;6.356;2024-03-17T15:41:08;16.80;99.90
10296;DHT22;5193;51.032;6.356;2024-03-17T15:43:39;16.60;99.90
10296;DHT22;5193;51.032;6.356;2024-03-17T15:46:15;16.50;99.90
10296;DHT22;5193;51.032;6.356;2024-03-17T15:48:42;16.30;99.90
10296;DHT22;5193;51.032;6.356;2024-03-17T15:51:11;16.30;99.90
10296;DHT22;5193;51.032;6.356;2024-03-17T15:53:37;16.20;99.90
10296;DHT22;5193;51.032;6.356;2024-03-17T15:56:04;16.10;99.90
10296;DHT22;5193;51.032;6.356;2024-03-17T15:58:30;16.00;99.90
10296;DHT22;5193;51.032;6.356;2024-03-17T16:00:57;15.90;99.90
10296;DHT22;5193;51.032;6.356;2024-03-17T16:03:30;15.90;99.90
10296;DHT22;5193;51.032;6.356;2024-03-17T16:06:09;15.80;99.90
10296;DHT22;5193;51.032;6.356;2024-03-17T16:08:40;15.70;99.90
10296;DHT22;5193;51.032;6.356;2024-03-17T16:11:09;15.70;99.90
10296;DHT22;5193;51.032;6.356;2024-03-17T16:13:39;15.60;99.90
10296;DHT22;5193;51.032;6.356;2024-03-17T16:16:12;15.60;99.90
10296;DHT22;5193;51.032;6.356;2024-03-17T16:18:40;15.50;99.90
10296;DHT22;5193;51.032;6.356;2024-03-17T16:21:09;15.50;99.90
10296;DHT22;5193;51.032;6.356;2024-03-17T16:23:42;15.40;99.90
10296;DHT22;5193;51.032;6.356;2024-03-17T16:26:08;15.40;99.90
10296;DHT22;5193;51.032;6.356;2024-03-17T16:28:35;15.30;99.90
10296;DHT22;5193;51.032;6.356;2024-03-17T16:31:03;15.30;99.90
10296;DHT22;5193;51.032;6.356;2024-03-17T16:33:29;15.30;99.90
10296;DHT22;5193;51.032;6.356;2024-03-17T16:35:56;15.20;99.90
10296;DHT22;5193;51.032;6.356;2024-03-17T16:38:22;15.20;99.90
10296;DHT22;5193;51.032;6.356;2024-03-17T16:40:48;15.10;99.90